sensor_id;sensor_type;location;lat;lon;timestamp;P1;durP1;ratioP1;P2;durP2;ratioP2
53519;SDS011;39397;53.204;5.778;2023-09-19T00:01:08;14.77;;;2.38;;
53519;SDS011;39397;53.204;5.778;2023-09-19T00:03:36;13.90;;;2.35;;
53519;SDS011;39397;53.204;5.778;2023-09-19T00:06:03;10.73;;;2.22;;
53519;SDS011;39397;53.204;5.778;2023-09-19T00:08:32;12.35;;;2.47;;
53519;SDS011;39397;53.204;5.778;2023-09-19T00:10:58;11.43;;;2.00;;
53519;SDS011;39397;53.204;5.778;2023-09-19T00:13:31;11.43;;;2.13;;
53519;SDS011;39397;53.204;5.778;2023-09-19T00:16:01;11.52;;;2.28;;
53519;SDS011;39397;53.204;5.778;2023-09-19T00:18:35;10.80;;;1.95;;
53519;SDS011;39397;53.204;5.778;2023-09-19T00:21:03;9.65;;;2.15;;
53519;SDS011;39397;53.204;5.778;2023-09-19T00:23:38;9.57;;;2.20;;
53519;SDS011;39397;53.204;5.778;2023-09-19T00:26:07;10.75;;;2.10;;
53519;SDS011;39397;53.204;5.778;2023-09-19T00:28:35;13.45;;;2.28;;
53519;SDS011;39397;53.204;5.778;2023-09-19T00:31:09;10.90;;;2.20;;
53519;SDS011;39397;53.204;5.778;2023-09-19T00:33:40;15.95;;;4.15;;
53519;SDS011;39397;53.204;5.778;2023-09-19T00:36:09;10.98;;;1.77;;
53519;SDS011;39397;53.204;5.778;2023-09-19T00:38:42;9.93;;;2.05;;
53519;SDS011;39397;53.204;5.778;2023-09-19T00:41:09;9.52;;;2.03;;
53519;SDS011;39397;53.204;5.778;2023-09-19T00:43:41;8.52;;;1.65;;
53519;SDS011;39397;53.204;5.778;2023-09-19T00:46:07;12.23;;;2.13;;
53519;SDS011;39397;53.204;5.778;2023-09-19T00:48:39;12.35;;;2.47;;
53519;SDS011;39397;53.204;5.778;2023-09-19T00:51:08;11.88;;;2.03;;
53519;SDS011;39397;53.204;5.778;2023-09-19T00:53:36;10.82;;;1.98;;
53519;SDS011;39397;53.204;5.778;2023-09-19T00:56:05;9.15;;;2.92;;
53519;SDS011;39397;53.204;5.778;2023-09-19T00:58:37;9.10;;;1.90;;
53519;SDS011;39397;53.204;5.778;2023-09-19T01:01:04;9.40;;;1.60;;
53519;SDS011;39397;53.204;5.778;2023-09-19T01:03:36;9.75;;;2.20;;
53519;SDS011;39397;53.204;5.778;2023-09-19T01:06:06;14.52;;;2.00;;
53519;SDS011;39397;53.204;5.778;2023-09-19T01:08:48;9.00;;;1.42;;
53519;SDS011;39397;53.204;5.778;2023-09-19T01:11:20;8.95;;;1.90;;
53519;SDS011;39397;53.204;5.778;2023-09-19T01:13:58;10.68;;;2.05;;
53519;SDS011;39397;53.204;5.778;2023-09-19T01:22:15;11.88;;;2.05;;
53519;SDS011;39397;53.204;5.778;2023-09-19T01:25:07;11.45;;;1.98;;
53519;SDS011;39397;53.204;5.778;2023-09-19T01:31:07;8.65;;;1.95;;
53519;SDS011;39397;53.204;5.778;2023-09-19T01:33:54;10.40;;;2.08;;
53519;SDS011;39397;53.204;5.778;2023-09-19T01:36:26;10.20;;;1.75;;
53519;SDS011;39397;53.204;5.778;2023-09-19T01:39:12;9.20;;;1.70;;
53519;SDS011;39397;53.204;5.778;2023-09-19T01:44:54;7.72;;;2.03;;
53519;SDS011;39397;53.204;5.778;2023-09-19T01:47:38;10.50;;;2.10;;
53519;SDS011;39397;53.204;5.778;2023-09-19T01:50:21;10.15;;;1.75;;
53519;SDS011;39397;53.204;5.778;2023-09-19T01:53:26;8.55;;;1.60;;
53519;SDS011;39397;53.204;5.778;2023-09-19T01:56:00;8.88;;;1.92;;
53519;SDS011;39397;53.204;5.778;2023-09-19T01:58:48;8.52;;;2.10;;
53519;SDS011;39397;53.204;5.778;2023-09-19T02:01:22;6.50;;;1.25;;
53519;SDS011;39397;53.204;5.778;2023-09-19T02:03:58;6.78;;;1.42;;
53519;SDS011;39397;53.204;5.778;2023-09-19T02:06:40;7.20;;;2.22;;
53519;SDS011;39397;53.204;5.778;2023-09-19T02:09:09;12.43;;;1.58;;
53519;SDS011;39397;53.204;5.778;2023-09-19T02:11:35;8.63;;;1.88;;
53519;SDS011;39397;53.204;5.778;2023-09-19T02:14:02;8.00;;;1.75;;
53519;SDS011;39397;53.204;5.778;2023-09-19T02:16:29;9.80;;;1.70;;
53519;SDS011;39397;53.204;5.778;2023-09-19T02:18:55;10.75;;;1.60;;
53519;SDS011;39397;53.204;5.778;2023-09-19T02:21:22;7.80;;;1.48;;
53519;SDS011;39397;53.204;5.778;2023-09-19T02:23:50;8.90;;;1.48;;
53519;SDS011;39397;53.204;5.778;2023-09-19T02:26:20;10.10;;;1.73;;
53519;SDS011;39397;53.204;5.778;2023-09-19T02:28:55;9.65;;;1.85;;
53519;SDS011;39397;53.204;5.778;2023-09-19T02:31:23;13.52;;;2.38;;
53519;SDS011;39397;53.204;5.778;2023-09-19T02:33:53;10.52;;;1.70;;
53519;SDS011;39397;53.204;5.778;2023-09-19T02:36:22;9.55;;;2.53;;
53519;SDS011;39397;53.204;5.778;2023-09-19T02:38:49;10.65;;;1.73;;
53519;SDS011;39397;53.204;5.778;2023-09-19T02:43:50;11.10;;;1.80;;
53519;SDS011;39397;53.204;5.778;2023-09-19T02:46:17;10.05;;;2.00;;
53519;SDS011;39397;53.204;5.778;2023-09-19T02:48:50;9.10;;;1.85;;
53519;SDS011;39397;53.204;5.778;2023-09-19T02:51:18;12.38;;;2.00;;
53519;SDS011;39397;53.204;5.778;2023-09-19T02:53:44;8.32;;;1.67;;
53519;SDS011;39397;53.204;5.778;2023-09-19T02:56:36;9.13;;;1.55;;
53519;SDS011;39397;53.204;5.778;2023-09-19T02:59:02;16.30;;;2.67;;
53519;SDS011;39397;53.204;5.778;2023-09-19T03:01:30;6.80;;;1.52;;
53519;SDS011;39397;53.204;5.778;2023-09-19T03:04:02;7.93;;;2.25;;
53519;SDS011;39397;53.204;5.778;2023-09-19T03:06:34;7.40;;;1.58;;
53519;SDS011;39397;53.204;5.778;2023-09-19T03:09:00;6.50;;;1.20;;
53519;SDS011;39397;53.204;5.778;2023-09-19T03:11:28;12.00;;;2.22;;
53519;SDS011;39397;53.204;5.778;2023-09-19T03:13:55;9.25;;;1.88;;
53519;SDS011;39397;53.204;5.778;2023-09-19T03:16:21;10.82;;;1.85;;
53519;SDS011;39397;53.204;5.778;2023-09-19T03:18:53;8.40;;;2.03;;
53519;SDS011;39397;53.204;5.778;2023-09-19T03:21:21;11.23;;;1.33;;
53519;SDS011;39397;53.204;5.778;2023-09-19T03:23:48;9.35;;;1.85;;
53519;SDS011;39397;53.204;5.778;2023-09-19T03:26:22;11.55;;;1.38;;
53519;SDS011;39397;53.204;5.778;2023-09-19T03:28:50;7.30;;;2.10;;
53519;SDS011;39397;53.204;5.778;2023-09-19T03:31:23;8.25;;;1.77;;
53519;SDS011;39397;53.204;5.778;2023-09-19T03:33:58;10.73;;;1.88;;
53519;SDS011;39397;53.204;5.778;2023-09-19T03:36:37;9.32;;;1.85;;
53519;SDS011;39397;53.204;5.778;2023-09-19T03:39:06;7.65;;;1.95;;
53519;SDS011;39397;53.204;5.778;2023-09-19T03:41:35;9.38;;;2.00;;
53519;SDS011;39397;53.204;5.778;2023-09-19T03:44:01;6.68;;;1.45;;
53519;SDS011;39397;53.204;5.778;2023-09-19T03:46:29;7.38;;;1.60;;
53519;SDS011;39397;53.204;5.778;2023-09-19T03:48:59;8.20;;;1.60;;
53519;SDS011;39397;53.204;5.778;2023-09-19T03:51:25;7.68;;;1.77;;
53519;SDS011;39397;53.204;5.778;2023-09-19T03:54:01;11.23;;;2.80;;
53519;SDS011;39397;53.204;5.778;2023-09-19T03:56:29;12.02;;;2.20;;
53519;SDS011;39397;53.204;5.778;2023-09-19T03:58:56;10.77;;;1.95;;
53519;SDS011;39397;53.204;5.778;2023-09-19T04:01:22;9.00;;;1.60;;
53519;SDS011;39397;53.204;5.778;2023-09-19T04:03:49;10.95;;;1.92;;
53519;SDS011;39397;53.204;5.778;2023-09-19T04:06:19;10.10;;;2.13;;
53519;SDS011;39397;53.204;5.778;2023-09-19T04:08:54;9.25;;;1.83;;
53519;SDS011;39397;53.204;5.778;2023-09-19T04:11:28;9.15;;;2.17;;
53519;SDS011;39397;53.204;5.778;2023-09-19T04:14:02;8.93;;;1.70;;
53519;SDS011;39397;53.204;5.778;2023-09-19T04:16:29;9.25;;;1.73;;
53519;SDS011;39397;53.204;5.778;2023-09-19T04:19:04;11.52;;;1.98;;
53519;SDS011;39397;53.204;5.778;2023-09-19T04:21:34;10.27;;;1.80;;
53519;SDS011;39397;53.204;5.778;2023-09-19T04:24:05;13.60;;;1.58;;
53519;SDS011;39397;53.204;5.778;2023-09-19T04:26:31;8.30;;;1.55;;
53519;SDS011;39397;53.204;5.778;2023-09-19T04:29:07;10.10;;;1.98;;
53519;SDS011;39397;53.204;5.778;2023-09-19T04:31:36;7.72;;;1.80;;
53519;SDS011;39397;53.204;5.778;2023-09-19T04:34:09;6.13;;;1.38;;
53519;SDS011;39397;53.204;5.778;2023-09-19T04:36:38;9.10;;;2.25;;
53519;SDS011;39397;53.204;5.778;2023-09-19T04:39:05;9.73;;;1.90;;
53519;SDS011;39397;53.204;5.778;2023-09-19T04:41:45;8.43;;;1.40;;
53519;SDS011;39397;53.204;5.778;2023-09-19T04:44:14;6.80;;;1.95;;
53519;SDS011;39397;53.204;5.778;2023-09-19T04:46:39;8.77;;;1.60;;
53519;SDS011;39397;53.204;5.778;2023-09-19T04:49:05;7.53;;;1.52;;
53519;SDS011;39397;53.204;5.778;2023-09-19T04:51:31;10.63;;;2.03;;
53519;SDS011;39397;53.204;5.778;2023-09-19T04:54:00;8.93;;;1.63;;
53519;SDS011;39397;53.204;5.778;2023-09-19T04:56:26;11.88;;;1.95;;
53519;SDS011;39397;53.204;5.778;2023-09-19T04:58:53;8.90;;;1.45;;
53519;SDS011;39397;53.204;5.778;2023-09-19T05:01:19;11.70;;;1.85;;
53519;SDS011;39397;53.204;5.778;2023-09-19T05:03:47;10.93;;;1.70;;
53519;SDS011;39397;53.204;5.778;2023-09-19T05:06:17;11.35;;;1.90;;
53519;SDS011;39397;53.204;5.778;2023-09-19T05:08:43;9.88;;;2.05;;
53519;SDS011;39397;53.204;5.778;2023-09-19T05:11:09;11.88;;;2.17;;
53519;SDS011;39397;53.204;5.778;2023-09-19T05:13:35;8.15;;;2.13;;
53519;SDS011;39397;53.204;5.778;2023-09-19T05:16:00;13.10;;;2.95;;
53519;SDS011;39397;53.204;5.778;2023-09-19T05:18:27;11.95;;;2.67;;
53519;SDS011;39397;53.204;5.778;2023-09-19T05:20:53;11.02;;;2.30;;
53519;SDS011;39397;53.204;5.778;2023-09-19T05:23:19;11.50;;;2.45;;
53519;SDS011;39397;53.204;5.778;2023-09-19T05:25:46;12.20;;;1.95;;
53519;SDS011;39397;53.204;5.778;2023-09-19T05:28:11;9.93;;;1.63;;
53519;SDS011;39397;53.204;5.778;2023-09-19T05:30:40;13.77;;;2.30;;
53519;SDS011;39397;53.204;5.778;2023-09-19T05:33:06;10.82;;;2.00;;
53519;SDS011;39397;53.204;5.778;2023-09-19T05:35:33;8.13;;;1.60;;
53519;SDS011;39397;53.204;5.778;2023-09-19T05:37:59;16.70;;;2.90;;
53519;SDS011;39397;53.204;5.778;2023-09-19T05:40:25;12.10;;;1.80;;
53519;SDS011;39397;53.204;5.778;2023-09-19T05:42:51;10.23;;;2.60;;
53519;SDS011;39397;53.204;5.778;2023-09-19T05:45:17;10.32;;;1.77;;
53519;SDS011;39397;53.204;5.778;2023-09-19T05:47:49;12.52;;;2.65;;
53519;SDS011;39397;53.204;5.778;2023-09-19T05:50:16;11.88;;;2.00;;
53519;SDS011;39397;53.204;5.778;2023-09-19T05:52:43;12.52;;;2.08;;
53519;SDS011;39397;53.204;5.778;2023-09-19T05:55:17;12.63;;;1.90;;
53519;SDS011;39397;53.204;5.778;2023-09-19T05:57:43;11.95;;;2.55;;
53519;SDS011;39397;53.204;5.778;2023-09-19T06:00:15;12.02;;;2.30;;
53519;SDS011;39397;53.204;5.778;2023-09-19T06:02:43;13.77;;;1.85;;
53519;SDS011;39397;53.204;5.778;2023-09-19T06:05:10;9.40;;;1.77;;
53519;SDS011;39397;53.204;5.778;2023-09-19T06:07:36;10.30;;;1.65;;
53519;SDS011;39397;53.204;5.778;2023-09-19T06:10:04;10.68;;;2.60;;
53519;SDS011;39397;53.204;5.778;2023-09-19T06:12:31;9.38;;;1.63;;
53519;SDS011;39397;53.204;5.778;2023-09-19T06:15:02;13.63;;;2.90;;
53519;SDS011;39397;53.204;5.778;2023-09-19T06:17:30;13.65;;;1.60;;
53519;SDS011;39397;53.204;5.778;2023-09-19T06:19:56;11.45;;;1.88;;
53519;SDS011;39397;53.204;5.778;2023-09-19T06:22:22;9.40;;;2.13;;
53519;SDS011;39397;53.204;5.778;2023-09-19T06:24:49;9.07;;;1.75;;
53519;SDS011;39397;53.204;5.778;2023-09-19T06:27:15;7.45;;;1.92;;
53519;SDS011;39397;53.204;5.778;2023-09-19T06:29:41;10.05;;;2.10;;
53519;SDS011;39397;53.204;5.778;2023-09-19T06:32:10;10.93;;;1.98;;
53519;SDS011;39397;53.204;5.778;2023-09-19T06:34:36;9.88;;;1.85;;
53519;SDS011;39397;53.204;5.778;2023-09-19T06:37:03;15.02;;;2.50;;
53519;SDS011;39397;53.204;5.778;2023-09-19T06:39:31;15.35;;;3.63;;
53519;SDS011;39397;53.204;5.778;2023-09-19T06:42:03;12.70;;;2.30;;
53519;SDS011;39397;53.204;5.778;2023-09-19T06:44:29;8.70;;;1.80;;
53519;SDS011;39397;53.204;5.778;2023-09-19T06:46:57;9.68;;;1.85;;
53519;SDS011;39397;53.204;5.778;2023-09-19T06:49:23;10.88;;;2.17;;
53519;SDS011;39397;53.204;5.778;2023-09-19T06:51:48;5.72;;;1.52;;
53519;SDS011;39397;53.204;5.778;2023-09-19T06:54:14;7.63;;;1.60;;
53519;SDS011;39397;53.204;5.778;2023-09-19T06:56:40;7.47;;;1.75;;
53519;SDS011;39397;53.204;5.778;2023-09-19T06:59:06;9.73;;;2.05;;
53519;SDS011;39397;53.204;5.778;2023-09-19T07:01:32;9.68;;;1.83;;
53519;SDS011;39397;53.204;5.778;2023-09-19T07:03:58;12.82;;;2.65;;
53519;SDS011;39397;53.204;5.778;2023-09-19T07:06:27;10.20;;;1.77;;
53519;SDS011;39397;53.204;5.778;2023-09-19T07:08:53;11.95;;;2.45;;
53519;SDS011;39397;53.204;5.778;2023-09-19T07:11:19;9.30;;;1.95;;
53519;SDS011;39397;53.204;5.778;2023-09-19T07:13:46;11.32;;;3.00;;
53519;SDS011;39397;53.204;5.778;2023-09-19T07:16:12;7.60;;;2.10;;
53519;SDS011;39397;53.204;5.778;2023-09-19T07:18:38;14.15;;;2.22;;
53519;SDS011;39397;53.204;5.778;2023-09-19T07:21:04;11.73;;;2.08;;
53519;SDS011;39397;53.204;5.778;2023-09-19T07:23:31;12.93;;;2.28;;
53519;SDS011;39397;53.204;5.778;2023-09-19T07:26:03;14.82;;;2.20;;
53519;SDS011;39397;53.204;5.778;2023-09-19T07:28:30;8.93;;;2.17;;
53519;SDS011;39397;53.204;5.778;2023-09-19T07:31:01;8.98;;;1.70;;
53519;SDS011;39397;53.204;5.778;2023-09-19T07:33:28;10.35;;;2.97;;
53519;SDS011;39397;53.204;5.778;2023-09-19T07:35:54;14.90;;;2.58;;
53519;SDS011;39397;53.204;5.778;2023-09-19T07:38:20;8.35;;;1.90;;
53519;SDS011;39397;53.204;5.778;2023-09-19T07:40:46;10.45;;;2.05;;
53519;SDS011;39397;53.204;5.778;2023-09-19T07:43:12;8.23;;;1.48;;
53519;SDS011;39397;53.204;5.778;2023-09-19T07:45:38;13.05;;;2.97;;
53519;SDS011;39397;53.204;5.778;2023-09-19T07:48:03;10.07;;;2.15;;
53519;SDS011;39397;53.204;5.778;2023-09-19T07:50:33;10.95;;;1.80;;
53519;SDS011;39397;53.204;5.778;2023-09-19T07:53:01;8.45;;;1.98;;
53519;SDS011;39397;53.204;5.778;2023-09-19T07:55:30;11.02;;;2.10;;
53519;SDS011;39397;53.204;5.778;2023-09-19T07:57:55;10.43;;;2.95;;
53519;SDS011;39397;53.204;5.778;2023-09-19T08:00:22;8.77;;;1.98;;
53519;SDS011;39397;53.204;5.778;2023-09-19T08:02:48;10.77;;;3.05;;
53519;SDS011;39397;53.204;5.778;2023-09-19T08:05:14;10.82;;;2.10;;
53519;SDS011;39397;53.204;5.778;2023-09-19T08:07:41;10.60;;;2.05;;
53519;SDS011;39397;53.204;5.778;2023-09-19T08:10:09;12.93;;;2.13;;
53519;SDS011;39397;53.204;5.778;2023-09-19T08:12:44;9.95;;;2.25;;
53519;SDS011;39397;53.204;5.778;2023-09-19T08:15:14;15.88;;;2.45;;
53519;SDS011;39397;53.204;5.778;2023-09-19T08:17:47;10.65;;;2.38;;
53519;SDS011;39397;53.204;5.778;2023-09-19T08:20:13;11.07;;;2.00;;
53519;SDS011;39397;53.204;5.778;2023-09-19T08:22:43;9.15;;;2.00;;
53519;SDS011;39397;53.204;5.778;2023-09-19T08:25:18;10.77;;;1.80;;
53519;SDS011;39397;53.204;5.778;2023-09-19T08:27:44;11.48;;;2.20;;
53519;SDS011;39397;53.204;5.778;2023-09-19T08:30:16;11.73;;;2.10;;
53519;SDS011;39397;53.204;5.778;2023-09-19T08:32:48;8.70;;;1.90;;
53519;SDS011;39397;53.204;5.778;2023-09-19T08:35:14;10.50;;;2.28;;
53519;SDS011;39397;53.204;5.778;2023-09-19T08:37:40;12.02;;;2.17;;
53519;SDS011;39397;53.204;5.778;2023-09-19T08:40:07;11.27;;;2.25;;
53519;SDS011;39397;53.204;5.778;2023-09-19T08:42:49;9.85;;;2.33;;
53519;SDS011;39397;53.204;5.778;2023-09-19T08:45:19;8.57;;;2.20;;
53519;SDS011;39397;53.204;5.778;2023-09-19T08:48:30;11.50;;;2.28;;
53519;SDS011;39397;53.204;5.778;2023-09-19T08:50:43;10.38;;;2.15;;
53519;SDS011;39397;53.204;5.778;2023-09-19T08:56:11;10.65;;;2.40;;
53519;SDS011;39397;53.204;5.778;2023-09-19T09:01:12;12.27;;;2.75;;
53519;SDS011;39397;53.204;5.778;2023-09-19T09:03:40;10.13;;;2.50;;
53519;SDS011;39397;53.204;5.778;2023-09-19T09:06:11;12.93;;;2.53;;
53519;SDS011;39397;53.204;5.778;2023-09-19T09:08:40;10.27;;;2.28;;
53519;SDS011;39397;53.204;5.778;2023-09-19T09:11:08;10.05;;;2.35;;
53519;SDS011;39397;53.204;5.778;2023-09-19T09:13:35;9.13;;;2.00;;
53519;SDS011;39397;53.204;5.778;2023-09-19T09:16:02;13.05;;;2.72;;
53519;SDS011;39397;53.204;5.778;2023-09-19T09:18:28;11.32;;;2.67;;
53519;SDS011;39397;53.204;5.778;2023-09-19T09:20:57;13.25;;;2.30;;
53519;SDS011;39397;53.204;5.778;2023-09-19T09:23:22;11.95;;;2.60;;
53519;SDS011;39397;53.204;5.778;2023-09-19T09:25:51;11.48;;;2.58;;
53519;SDS011;39397;53.204;5.778;2023-09-19T09:28:25;11.98;;;3.08;;
53519;SDS011;39397;53.204;5.778;2023-09-19T09:30:53;12.57;;;3.35;;
53519;SDS011;39397;53.204;5.778;2023-09-19T09:33:20;12.38;;;2.90;;
53519;SDS011;39397;53.204;5.778;2023-09-19T09:35:59;12.98;;;2.30;;
53519;SDS011;39397;53.204;5.778;2023-09-19T09:38:27;12.98;;;2.40;;
53519;SDS011;39397;53.204;5.778;2023-09-19T09:41:10;14.95;;;2.75;;
53519;SDS011;39397;53.204;5.778;2023-09-19T09:43:40;12.77;;;3.28;;
53519;SDS011;39397;53.204;5.778;2023-09-19T09:46:14;13.60;;;2.72;;
53519;SDS011;39397;53.204;5.778;2023-09-19T09:51:39;11.07;;;2.70;;
53519;SDS011;39397;53.204;5.778;2023-09-19T09:54:13;10.50;;;2.50;;
53519;SDS011;39397;53.204;5.778;2023-09-19T09:57:04;10.82;;;2.83;;
53519;SDS011;39397;53.204;5.778;2023-09-19T09:59:54;15.70;;;3.60;;
53519;SDS011;39397;53.204;5.778;2023-09-19T10:02:40;11.35;;;3.03;;
53519;SDS011;39397;53.204;5.778;2023-09-19T10:05:14;8.95;;;2.53;;
53519;SDS011;39397;53.204;5.778;2023-09-19T10:07:47;11.98;;;2.90;;
53519;SDS011;39397;53.204;5.778;2023-09-19T10:10:33;13.35;;;2.95;;
53519;SDS011;39397;53.204;5.778;2023-09-19T10:13:07;11.32;;;2.42;;
53519;SDS011;39397;53.204;5.778;2023-09-19T10:15:39;12.80;;;3.15;;
53519;SDS011;39397;53.204;5.778;2023-09-19T10:18:11;12.55;;;2.47;;
53519;SDS011;39397;53.204;5.778;2023-09-19T10:20:44;11.45;;;2.63;;
53519;SDS011;39397;53.204;5.778;2023-09-19T10:23:11;13.43;;;2.47;;
53519;SDS011;39397;53.204;5.778;2023-09-19T10:25:41;12.70;;;2.55;;
53519;SDS011;39397;53.204;5.778;2023-09-19T10:28:13;12.93;;;2.10;;
53519;SDS011;39397;53.204;5.778;2023-09-19T10:30:44;16.77;;;3.72;;
53519;SDS011;39397;53.204;5.778;2023-09-19T10:33:16;13.05;;;2.70;;
53519;SDS011;39397;53.204;5.778;2023-09-19T10:35:43;11.25;;;2.30;;
53519;SDS011;39397;53.204;5.778;2023-09-19T10:38:11;10.38;;;2.80;;
53519;SDS011;39397;53.204;5.778;2023-09-19T10:40:38;11.95;;;3.25;;
53519;SDS011;39397;53.204;5.778;2023-09-19T10:43:15;10.27;;;2.60;;
53519;SDS011;39397;53.204;5.778;2023-09-19T10:45:46;14.48;;;2.70;;
53519;SDS011;39397;53.204;5.778;2023-09-19T10:48:17;14.07;;;2.80;;
53519;SDS011;39397;53.204;5.778;2023-09-19T10:50:52;11.85;;;2.63;;
53519;SDS011;39397;53.204;5.778;2023-09-19T10:53:24;11.23;;;2.70;;
53519;SDS011;39397;53.204;5.778;2023-09-19T10:55:54;15.52;;;2.78;;
53519;SDS011;39397;53.204;5.778;2023-09-19T10:58:28;12.20;;;2.67;;
53519;SDS011;39397;53.204;5.778;2023-09-19T11:00:59;16.90;;;3.65;;
53519;SDS011;39397;53.204;5.778;2023-09-19T11:03:37;16.48;;;3.05;;
53519;SDS011;39397;53.204;5.778;2023-09-19T11:06:09;11.65;;;2.40;;
53519;SDS011;39397;53.204;5.778;2023-09-19T11:30:50;13.57;;;3.35;;
53519;SDS011;39397;53.204;5.778;2023-09-19T11:33:30;12.23;;;2.90;;
53519;SDS011;39397;53.204;5.778;2023-09-19T11:43:49;12.35;;;3.00;;
53519;SDS011;39397;53.204;5.778;2023-09-19T11:46:25;9.55;;;3.08;;
53519;SDS011;39397;53.204;5.778;2023-09-19T11:48:53;13.90;;;3.20;;
53519;SDS011;39397;53.204;5.778;2023-09-19T11:51:22;18.23;;;3.42;;
53519;SDS011;39397;53.204;5.778;2023-09-19T11:53:56;12.40;;;3.40;;
53519;SDS011;39397;53.204;5.778;2023-09-19T11:56:25;13.95;;;3.65;;
53519;SDS011;39397;53.204;5.778;2023-09-19T11:58:56;20.92;;;3.72;;
53519;SDS011;39397;53.204;5.778;2023-09-19T12:01:26;14.20;;;3.42;;
53519;SDS011;39397;53.204;5.778;2023-09-19T12:03:57;12.13;;;3.20;;
53519;SDS011;39397;53.204;5.778;2023-09-19T12:06:28;13.70;;;3.13;;
53519;SDS011;39397;53.204;5.778;2023-09-19T12:08:54;12.35;;;3.10;;
53519;SDS011;39397;53.204;5.778;2023-09-19T12:11:23;13.50;;;2.60;;
53519;SDS011;39397;53.204;5.778;2023-09-19T12:13:53;8.18;;;2.17;;
53519;SDS011;39397;53.204;5.778;2023-09-19T12:16:24;10.57;;;2.92;;
53519;SDS011;39397;53.204;5.778;2023-09-19T12:18:51;11.40;;;2.92;;
53519;SDS011;39397;53.204;5.778;2023-09-19T12:21:26;10.95;;;2.63;;
53519;SDS011;39397;53.204;5.778;2023-09-19T12:24:14;14.23;;;2.75;;
53519;SDS011;39397;53.204;5.778;2023-09-19T12:26:44;8.95;;;2.05;;
53519;SDS011;39397;53.204;5.778;2023-09-19T12:29:21;9.45;;;2.15;;
53519;SDS011;39397;53.204;5.778;2023-09-19T12:31:59;7.93;;;2.20;;
53519;SDS011;39397;53.204;5.778;2023-09-19T12:34:30;10.68;;;1.70;;
53519;SDS011;39397;53.204;5.778;2023-09-19T12:37:06;10.48;;;2.58;;
53519;SDS011;39397;53.204;5.778;2023-09-19T12:39:44;10.40;;;2.08;;
53519;SDS011;39397;53.204;5.778;2023-09-19T12:42:18;10.23;;;2.05;;
53519;SDS011;39397;53.204;5.778;2023-09-19T12:44:46;11.02;;;2.33;;
53519;SDS011;39397;53.204;5.778;2023-09-19T12:47:27;11.00;;;2.35;;
53519;SDS011;39397;53.204;5.778;2023-09-19T12:52:57;10.48;;;2.40;;
53519;SDS011;39397;53.204;5.778;2023-09-19T12:55:30;9.65;;;2.40;;
53519;SDS011;39397;53.204;5.778;2023-09-19T12:58:08;8.75;;;2.40;;
53519;SDS011;39397;53.204;5.778;2023-09-19T13:00:43;11.18;;;3.08;;
53519;SDS011;39397;53.204;5.778;2023-09-19T13:03:14;8.57;;;2.33;;
53519;SDS011;39397;53.204;5.778;2023-09-19T13:06:00;10.75;;;2.78;;
53519;SDS011;39397;53.204;5.778;2023-09-19T13:08:33;12.43;;;2.83;;
53519;SDS011;39397;53.204;5.778;2023-09-19T13:11:03;10.73;;;2.72;;
53519;SDS011;39397;53.204;5.778;2023-09-19T13:14:14;9.77;;;2.25;;
53519;SDS011;39397;53.204;5.778;2023-09-19T13:16:59;8.50;;;2.05;;
53519;SDS011;39397;53.204;5.778;2023-09-19T13:19:36;7.18;;;2.00;;
53519;SDS011;39397;53.204;5.778;2023-09-19T13:22:35;11.73;;;2.13;;
53519;SDS011;39397;53.204;5.778;2023-09-19T13:25:18;10.70;;;2.10;;
53519;SDS011;39397;53.204;5.778;2023-09-19T13:27:45;13.48;;;2.33;;
53519;SDS011;39397;53.204;5.778;2023-09-19T13:30:27;9.10;;;2.33;;
53519;SDS011;39397;53.204;5.778;2023-09-19T13:33:12;7.05;;;1.92;;
53519;SDS011;39397;53.204;5.778;2023-09-19T13:35:44;9.82;;;2.10;;
53519;SDS011;39397;53.204;5.778;2023-09-19T13:38:10;8.52;;;1.80;;
53519;SDS011;39397;53.204;5.778;2023-09-19T13:40:36;9.38;;;2.20;;
53519;SDS011;39397;53.204;5.778;2023-09-19T13:43:04;10.23;;;2.13;;
53519;SDS011;39397;53.204;5.778;2023-09-19T13:45:32;8.57;;;2.25;;
53519;SDS011;39397;53.204;5.778;2023-09-19T13:47:57;13.80;;;2.88;;
53519;SDS011;39397;53.204;5.778;2023-09-19T13:50:24;7.95;;;2.33;;
53519;SDS011;39397;53.204;5.778;2023-09-19T13:52:54;9.38;;;2.28;;
53519;SDS011;39397;53.204;5.778;2023-09-19T13:55:22;9.05;;;2.35;;
53519;SDS011;39397;53.204;5.778;2023-09-19T13:57:48;8.93;;;2.53;;
53519;SDS011;39397;53.204;5.778;2023-09-19T14:00:24;13.32;;;2.50;;
53519;SDS011;39397;53.204;5.778;2023-09-19T14:02:50;10.95;;;3.10;;
53519;SDS011;39397;53.204;5.778;2023-09-19T14:05:16;11.25;;;2.58;;
53519;SDS011;39397;53.204;5.778;2023-09-19T14:07:45;12.98;;;3.63;;
53519;SDS011;39397;53.204;5.778;2023-09-19T14:10:11;8.73;;;2.53;;
53519;SDS011;39397;53.204;5.778;2023-09-19T14:12:37;11.70;;;2.85;;
53519;SDS011;39397;53.204;5.778;2023-09-19T14:15:06;14.13;;;2.38;;
53519;SDS011;39397;53.204;5.778;2023-09-19T14:17:37;15.52;;;3.58;;
53519;SDS011;39397;53.204;5.778;2023-09-19T14:20:03;15.13;;;3.42;;
53519;SDS011;39397;53.204;5.778;2023-09-19T14:22:31;14.52;;;3.00;;
53519;SDS011;39397;53.204;5.778;2023-09-19T14:24:58;12.43;;;3.20;;
53519;SDS011;39397;53.204;5.778;2023-09-19T14:27:24;14.63;;;3.72;;
53519;SDS011;39397;53.204;5.778;2023-09-19T14:29:50;12.77;;;3.03;;
53519;SDS011;39397;53.204;5.778;2023-09-19T14:32:16;12.90;;;2.88;;
53519;SDS011;39397;53.204;5.778;2023-09-19T14:34:42;15.30;;;3.05;;
53519;SDS011;39397;53.204;5.778;2023-09-19T14:37:09;12.38;;;2.88;;
53519;SDS011;39397;53.204;5.778;2023-09-19T14:39:36;14.77;;;3.25;;
53519;SDS011;39397;53.204;5.778;2023-09-19T14:42:04;11.40;;;2.75;;
53519;SDS011;39397;53.204;5.778;2023-09-19T14:44:30;13.48;;;3.13;;
53519;SDS011;39397;53.204;5.778;2023-09-19T14:46:56;14.75;;;3.40;;
53519;SDS011;39397;53.204;5.778;2023-09-19T14:49:21;16.52;;;3.50;;
53519;SDS011;39397;53.204;5.778;2023-09-19T14:51:47;13.48;;;3.13;;
53519;SDS011;39397;53.204;5.778;2023-09-19T14:54:13;12.07;;;3.00;;
53519;SDS011;39397;53.204;5.778;2023-09-19T14:56:43;12.52;;;3.30;;
53519;SDS011;39397;53.204;5.778;2023-09-19T14:59:09;14.63;;;3.08;;
53519;SDS011;39397;53.204;5.778;2023-09-19T15:01:36;12.18;;;3.10;;
53519;SDS011;39397;53.204;5.778;2023-09-19T15:04:02;14.07;;;2.97;;
53519;SDS011;39397;53.204;5.778;2023-09-19T15:06:38;14.30;;;3.13;;
53519;SDS011;39397;53.204;5.778;2023-09-19T15:09:03;16.88;;;3.80;;
53519;SDS011;39397;53.204;5.778;2023-09-19T15:11:30;15.27;;;3.67;;
53519;SDS011;39397;53.204;5.778;2023-09-19T15:13:55;15.95;;;3.40;;
53519;SDS011;39397;53.204;5.778;2023-09-19T15:16:22;14.35;;;3.92;;
53519;SDS011;39397;53.204;5.778;2023-09-19T15:18:47;14.02;;;3.55;;
53519;SDS011;39397;53.204;5.778;2023-09-19T15:21:13;16.10;;;3.10;;
53519;SDS011;39397;53.204;5.778;2023-09-19T15:23:40;16.60;;;4.10;;
53519;SDS011;39397;53.204;5.778;2023-09-19T15:26:08;14.07;;;3.97;;
53519;SDS011;39397;53.204;5.778;2023-09-19T15:28:36;14.18;;;3.53;;
53519;SDS011;39397;53.204;5.778;2023-09-19T15:31:06;18.83;;;3.90;;
53519;SDS011;39397;53.204;5.778;2023-09-19T15:33:36;23.02;;;4.88;;
53519;SDS011;39397;53.204;5.778;2023-09-19T15:36:05;18.13;;;5.65;;
53519;SDS011;39397;53.204;5.778;2023-09-19T15:41:25;23.17;;;5.70;;
53519;SDS011;39397;53.204;5.778;2023-09-19T15:43:59;20.85;;;4.90;;
53519;SDS011;39397;53.204;5.778;2023-09-19T15:46:26;18.50;;;4.95;;
53519;SDS011;39397;53.204;5.778;2023-09-19T15:48:53;24.48;;;4.70;;
53519;SDS011;39397;53.204;5.778;2023-09-19T15:51:19;20.98;;;4.50;;
53519;SDS011;39397;53.204;5.778;2023-09-19T15:53:50;16.98;;;4.00;;
53519;SDS011;39397;53.204;5.778;2023-09-19T15:56:18;16.67;;;3.67;;